Airfield :
LOGIN :

Register | Disclaimer

   EN    FR    IT 

 










Legend :    VFR   Marginal VFR   IFR   Intensive IFR   Very Intensive IFR
Visi :
Ceiling :
>= 8 km
>= 3000ft
5 to 8 km
1000 to 3000 ft
1500m to 5 km
500 to 1000 ft
800 to 1500m
200 to 500 ft
< 800m
< 200 ft
Symbols :   Thunderstorms  Fog  Heavy snow  Heavy precipitations  Wind > 20 kt
SIGMETs :     Misc.  Thunderstorms  Icing  Turbulence  Mountain Waves  Volcanic Ashes







- Airport Elevation : 357 ft
- IATA code : TUF
- Download approach charts


LFOT - Tours

CURRENT METAR :
  • 192000Z AUTO 23004KT CAVOK 20/14 Q1021 NOSIG

EXPIRED METARs :
  • 191930Z AUTO 23005KT CAVOK 21/14 Q1020 NOSIG
  • 191900Z AUTO 22004KT 190V250 CAVOK 21/14 Q1020 NOSIG
  • 191830Z AUTO 24003KT 200V270 CAVOK 22/14 Q1020 NOSIG
  • 191800Z AUTO 24007KT 210V270 CAVOK 23/14 Q1020 NOSIG
  • 191730Z AUTO 24008KT 200V260 CAVOK 24/14 Q1020 NOSIG

TAF TAF LFOT
Valid from the 19 at 18:00 until the 20 at 18:00 UTC


191700Z 1918/2018 24008KT CAVOK
TEMPO 2003/2007 1200 BR BKN005
TEMPO 2007/2009 BKN012
No reported NOTAMs for that airfield.



MET'MAP, your aeronautical weather chart ! - Copyright ORBIFLY December 2007 - Disclaimer

ORBIFLY MET'MAP TEAM :

Programming & Development : Alexandra Zaïnal
Concept & Development : Baudouin d'Aumeries
Co-Development & Prog : Marc-Olivier Méhu
Technical & hardware support : Manuel Goepfert

Contact : metmap@orbifly.com




SOURCES & CREDITS :

   NOAA